Flight Track Log - Related Links

Times and Time Zones

All times are in EDT time to prevent confusion due to time zone crossing. See the VH-MUW flight status page for this flight to view local times or setup timezone preferences in your user account.

Time Position Orientation Groundspeed Altitude Reporting Facility
EDT Latitude Longitude Course Direction KTS MPH feet Rate Location/Type
Sun 06:57:49 PM -35.2983 149.1826 314° West 72 83 2,300  Level Aus ATC (RADAR)
Sun 06:58:13 PM -35.2918 149.1745 314° West 76 87 2,600 712 Climbing Aus ATC (RADAR)
Sun 06:58:48 PM -35.2809 149.1632 320° Northwest 86 99 3,000 750 Climbing Aus ATC (RADAR)
Sun 06:59:33 PM -35.2664 149.1490 321° Northwest 84 97 3,600 779 Climbing Aus ATC (RADAR)
Sun 07:00:05 PM -35.2573 149.1400 321° Northwest 83 96 4,000 750 Climbing Aus ATC (RADAR)
Sun 07:00:53 PM -35.2443 149.1236 314° West 80 92 4,600 658 Climbing Aus ATC (RADAR)
Sun 07:01:18 PM -35.2368 149.1174 326° Northwest 78 90 4,800 667 Climbing Aus ATC (RADAR)
Sun 07:02:23 PM -35.2171 149.1044 332° Northwest 70 81 5,600 695 Climbing Aus ATC (RADAR)
Sun 07:02:53 PM -35.2067 149.1002 342° North 78 90 5,900 545 Climbing Aus ATC (RADAR)
Sun 07:03:18 PM -35.1990 149.0972 342° North 70 81 6,100 600 Climbing Aus ATC (RADAR)
Sun 07:03:53 PM -35.1878 149.0891 330° Northwest 74 85 6,500 353 Climbing Aus ATC (RADAR)
Sun 07:04:43 PM -35.1689 149.0768 332° Northwest 94 108 6,600 71 Climbing Aus ATC (RADAR)
Sun 07:05:18 PM -35.1552 149.0666 329° Northwest 100 115 6,600  Level Aus ATC (RADAR)
Sun 07:06:04 PM -35.1362 149.0556 335° Northwest 99 114 6,600  Level Aus ATC (RADAR)
Sun 07:06:28 PM -35.1254 149.0486 332° Northwest 103 119 6,600  Level Aus ATC (RADAR)
Sun 07:07:28 PM -35.1004 149.0362 338° Northwest 94 108 6,600  Level Aus ATC (RADAR)
Sun 07:07:53 PM -35.0909 149.0309 335° Northwest 91 105 6,600  Level Aus ATC (RADAR)
Sun 07:08:17 PM -35.0812 149.0251 334° Northwest 93 107 6,600  Level Aus ATC (RADAR)
Sun 07:08:58 PM -35.0650 149.0174 339° North 92 106 6,600  Level Aus ATC (RADAR)
Sun 07:09:42 PM -35.0453 149.0111 345° North 97 112 6,600 76 Level Aus ATC (RADAR)
Sun 07:10:17 PM -35.0304 149.0065 346° North 98 113 6,700  Climbing Aus ATC (RADAR)
Sun 07:11:07 PM -35.0075 148.9972 342° North 105 121 6,600 -80 Descending Aus ATC (RADAR)
Sun 07:11:32 PM -34.9964 148.9915 337° Northwest 104 120 6,600  Level Aus ATC (RADAR)
Sun 07:12:32 PM -34.9702 148.9773 336° Northwest 100 115 6,600  Level Aus ATC (RADAR)
Sun 07:12:57 PM -34.9594 148.9715 336° Northwest 100 115 6,600  Level Aus ATC (RADAR)
Sun 07:13:22 PM -34.9482 148.9654 336° Northwest 104 120 6,600  Level Aus ATC (RADAR)
Sun 07:17:19 PM -34.8500 148.9167 360° North -1,671 Descending Aus ATC (Calculated)
Sun 07:19:00 PM -34.8063 148.9167 North  Level FlightAware Approximate
Sun 07:20:00 PM -34.8322 148.9167 180° South  Level FlightAware Approximate
Sun 07:21:00 PM -34.8582 148.9167 180° South  Level FlightAware Approximate
Sun 07:22:00 PM -34.8344 148.9125 348° North  Level FlightAware Approximate
Sun 07:23:00 PM -34.8091 148.9057 348° North  Level FlightAware Approximate
Sun 07:24:00 PM -34.7837 148.8988 348° North  Level FlightAware Approximate
Sun 07:25:00 PM -34.7583 148.8920 348° North  Level FlightAware Approximate
Sun 07:26:00 PM -34.7330 148.8852 348° North  Level FlightAware Approximate
Sun 07:27:00 PM -34.7076 148.8784 348° North  Level FlightAware Approximate
Sun 07:28:00 PM -34.6823 148.8716 348° North  Level FlightAware Approximate
Sun 07:29:00 PM -34.6569 148.8648 348° North  Level FlightAware Approximate
Sun 07:30:00 PM -34.6315 148.8580 348° North  Level FlightAware Approximate
Sun 07:31:00 PM -34.6062 148.8512 348° North  Level FlightAware Approximate
Sun 07:32:00 PM -34.5808 148.8444 348° North  Level FlightAware Approximate
Sun 07:33:00 PM -34.5554 148.8376 348° North  Level FlightAware Approximate
Sun 07:34:00 PM -34.5301 148.8308 348° North  Level FlightAware Approximate
Sun 07:35:00 PM -34.5047 148.8240 348° North  Level FlightAware Approximate
Sun 07:36:00 PM -34.4793 148.8172 348° North  Level FlightAware Approximate
Sun 07:37:00 PM -34.4539 148.8104 348° North  Level FlightAware Approximate
Sun 07:38:00 PM -34.4286 148.8037 348° North  Level FlightAware Approximate
Sun 07:39:00 PM -34.4032 148.7969 348° North  Level FlightAware Approximate
Sun 07:40:00 PM -34.3778 148.7901 348° North  Level FlightAware Approximate
Sun 07:41:00 PM -34.3525 148.7834 348° North  Level FlightAware Approximate
Sun 07:42:00 PM -34.3271 148.7766 348° North  Level FlightAware Approximate
Sun 07:42:23 PM -34.2218 148.7486 168° South  Level Aus ATC (Calculated)
Sun 07:43:00 PM -34.3017 148.7699 348° North  Level FlightAware Approximate
Sun 07:44:00 PM -34.1808 148.7378 348° North  Level FlightAware Approximate
Sun 07:45:00 PM -34.1555 148.7310 348° North  Level FlightAware Approximate
Sun 07:46:00 PM -34.1301 148.7243 348° North  Level FlightAware Approximate
Sun 07:47:00 PM -34.1047 148.7176 348° North  Level FlightAware Approximate
Sun 07:48:00 PM -34.0793 148.7109 348° North  Level FlightAware Approximate
Sun 07:49:00 PM -34.0540 148.7042 348° North  Level FlightAware Approximate
Sun 07:50:00 PM -34.0286 148.6975 348° North  Level FlightAware Approximate
Sun 07:51:00 PM -34.0032 148.6908 348° North  Level FlightAware Approximate
Sun 07:52:00 PM -33.9779 148.6841 348° North  Level FlightAware Approximate
Sun 07:53:00 PM -33.9525 148.6774 348° North  Level FlightAware Approximate
Sun 07:54:00 PM -33.9271 148.6707 348° North  Level FlightAware Approximate
Sun 07:55:00 PM -33.9017 148.6640 348° North  Level FlightAware Approximate
Sun 07:56:00 PM -33.8764 148.6573 348° North  Level FlightAware Approximate
Sun 07:57:00 PM -33.8510 148.6506 348° North  Level FlightAware Approximate
Sun 07:58:00 PM -33.8447 148.6489 348° North  Level Estimated
Sun 07:59:00 PM -33.8447 148.6489 131° Southeast  Level Estimated
Sun 08:00:00 PM -33.8447 148.6489 131° Southeast  Level Estimated
Sun 08:01:00 PM -33.8447 148.6489 348° North  Level Estimated
Sun 08:02:00 PM -33.8447 148.6489 348° North  Level Estimated
Sun 08:03:00 PM -33.8447 148.6489 348° North  Level Estimated

Login

Don't have an account? Register now (free) for customized features, flight alerts, and more!